Ride Results

Cooyar (14-03-2015)
Ride distance: 80.0 km

Outcomes - Cooyar (14-03-2015)
Division No. of Entries Retired / DNE Completed Withdrawn Ineligible V/O Percentage Completed
HW 19 - 12 1 - 6 63.16%
MW 30 - 21 3 - 6 70.00%
LW 28 - 23 1 - 4 82.14%
JN 15 - 13 - - 2 86.67%
Totals 92 - 69 5 - 18 75.00%
Results - Cooyar (14-03-2015)
No. Rider Horse Place Time Leg Speeds Total
Km/Hr
H/R bpm
Heavyweight
145 Ron Haigh Bacchante Dreamworks 1 (BC) 6:19:00 13.3, 11.9 12.66 42, 43, 44 (Avg:43)
168 Maurice Gray Longrun Ambrose 2 6:24:00 13.5, 11.5 12.50 37, 40, 47 (Avg:43)
121 Gregg Fields Dunwingeri Jasim 3 6:24:30 13.0, 11.9 12.48 33, 44, 47 (Avg:45)
106 Elizabeth Barnes Sahala Tennessee Moon 4 6:41:00 12.1, 11.8 11.97 34, 49, 49 (Avg:49)
159 Michael Chapman Showman te 5 7:01:00 11.3, 11.4 11.40 37, 47, 54 (Avg:50)
104 Rod Field Brookleigh Louise 6 7:06:00 11.5, 10.9 11.27 37, 43, 42 (Avg:42)
116 Troy Butler Roxborough Rivulet 7 7:32:00 11.2, 9.9 10.62 36, 46, 45 (Avg:45)
190 Matthew Gadsby Maximus Ra 8 7:35:05 10.6, 10.4 10.55 40, 40, 48 (Avg:44)
162 Ben Herbert Galifrey Cannon 9 7:47:00 10.2, 10.3 10.28 41, 50, 54 (Avg:52)
176 Greg Garred Shannonwood Sub 10 8:04:00 10.5, 9.2 9.92 34, 48, 50 (Avg:49)
143 Rob Scott Count Crysdafa 11 8:11:00 9.8, 9.7 9.78 34, 40, 39 (Avg:39)
102 Daniel Williams Edenfels Pegasus 12 8:42:00 9.4, 8.9 9.20 32, 31, 45 (Avg:38)
177 Jaime Mansbridge Lea Ma Park La Gold Lame L2 0:00:00 10.4, 9.4 - 33, 42, 52 (Avg:47)
110 Kathryn Priol Smudge Pot Square Pants Metabolics severe L2 0:00:00 11.3, 10.7 - 39, 44, 67 (Avg:55)
120 Craig Renner Edenfels Count Redmond Lame L2 0:00:00 11.9, 12.4 - 34, 49, 47 (Avg:48)
133 Liz Terry Ausden Illusion Lame L2 0:00:00 13.0, 10.2 - 36, 46, 51 (Avg:48)
156 Arch Felton Heathfield's Bin Sadaqa Metabolics severe L1 0:00:00 12.1 - 36, 44 (Avg:44)
174 Matthew Sample Anglesea Tasman Widthdrawn L1 0:00:00 - - 34, 52 (Avg:52)
101 Stephen Brown Rebel Heart Rate L1 4:43:00 9.1 9.12 38, 63 (Avg:63)
Middleweight
184 Fiona Fenech Bellarine Passiona 1 (BC) 5:08:00 16.7, 14.4 15.58 36, 46, 45 (Avg:45)
117 Narelle Childs Halo Kazaam 2 5:24:00 14.9, 14.7 14.81 34, 43, 45 (Avg:44)
167 Jamie Green Chelleason Rembrandt 3 5:26:00 14.9, 14.5 14.72 34, 45, 46 (Avg:45)
166 Kelsey Irvine Miva Majnoun 3 5:26:00 14.9, 14.5 14.72 33, 52, 52 (Avg:52)
183 Angela Waldock Gundabah Fair Lady 5 5:43:00 14.9, 13.0 13.99 38, 54, 55 (Avg:54)
198 Simone Krahnen Kalkadoon Zorro 6 6:25:00 12.2, 12.6 12.47 36, 42, 45 (Avg:43)
115 Gina Matthews Monarchs Knight 7 6:30:00 12.2, 12.3 12.31 34, 50, 51 (Avg:50)
130 Timothy Sutcliffe Zanes Shadow 8 6:59:00 11.5, 11.3 11.46 40, 41, 47 (Avg:44)
157 Sasha Laws-King Heathfield's Flashrani 9 7:15:00 11.3, 10.7 11.03 32, 46, 57 (Avg:51)
127 Debra McQueen Kynnum Park Mr Epona 10 7:27:00 10.6, 10.8 10.74 45, 52, 45 (Avg:48)
175 Gayle Holmes Sample Park Zach 11 7:28:00 10.6, 10.8 10.71 38, 48, 47 (Avg:47)
153 Corey Nix Razorback Blue Rhapsody 12 7:35:00 10.9, 10.0 10.55 37, 45, 41 (Avg:43)
173 Antonia Jardine Performance Park Maverick 13 7:42:00 10.8, 9.9 10.39 34, 42, 38 (Avg:40)
196 Jackie Swan Shantele 14 7:47:00 10.8, 9.6 10.28 36, 45, 42 (Avg:43)
193 Debbie Edwards Bashan Phoenix 15 7:51:00 10.6, 9.7 10.19 34, 42, 43 (Avg:42)
150 Bec Miller Splendacrest Quidam 16 8:00:00 10.4, 9.5 10.00 38, 43, 49 (Avg:46)
123 Yvonne Hain Janita La Tori 17 8:01:00 11.8, 8.4 9.98 31, 43, 43 (Avg:43)
113 Lorraine Ternouth Dunwingeri Zaza 17 8:01:00 10.8, 9.0 9.98 38, 45, 46 (Avg:45)
135 David Cleland Countess Crysda 19 8:11:00 9.8, 9.7 9.78 38, 42, 45 (Avg:43)
105 Julie Mohi Arabiana Banama 20 8:36:00 10.7, 8.0 9.30 39, 42, 48 (Avg:45)
158 Jacinta Stubbings Cameo Pygmalion 20 8:36:00 10.1, 8.4 9.30 35, 47, 46 (Avg:46)
111 Amanda Wilson Gheerulla Sheriff Lame L2 0:00:00 10.9, 10.1 - 40, 45, 47 (Avg:46)
132 Lesley Cataldo Rodborough Hassan Widthdrawn L1 0:00:00 - - 47, 46 (Avg:46)
125 Michael Combe Nasr Heart Rate L1 0:00:00 12.4 - 38, 57 (Avg:57)
148 Stephen Gray Kasbah Kid Heart Rate L1 0:00:00 11.2 - 35, 64 (Avg:64)
201 Peter Holmes Raazoor Dajani Widthdrawn L1 0:00:00 - - 44, 38 (Avg:38)
203 Rosemary Hull Dunwingeri Zarina Lame L1 0:00:00 9.4 - 50, 45 (Avg:45)
140 Donna Pearce Windhaven Hussein Widthdrawn L1 0:00:00 - - 30, 40 (Avg:40)
160 Gabriel Ramos Night Fire Lame L1 0:00:00 10.2 - 32, 40 (Avg:40)
147 Leeanne Bartlett Bonnie Downs Samir Metabolics severe P/R 0:00:00 - - -
Lightweight
152 Clare Fleming Picnic Park Desert Dancer 1 6:21:00 13.0, 12.1 12.60 44, 51, 52 (Avg:51)
188 Sarah Love Flemingo Makkaddie 1 6:21:00 13.0, 12.1 12.60 41, 52, 54 (Avg:53)
202 Pandora Bevan Lindall Kalliope 3 6:21:30 13.5, 11.6 12.58 32, 42, 48 (Avg:45)
122 Karen Fields Lasca's Legacy 4 (BC) 6:24:00 13.0, 11.9 12.50 32, 43, 48 (Avg:45)
199 Erin Krahnen Glengannon Azazael 5 6:25:00 12.2, 12.6 12.47 41, 49, 47 (Avg:48)
200 Colleen Krahnen Kalkadoon Shalom 5 6:25:00 12.2, 12.6 12.47 38, 45, 50 (Avg:47)
141 Jocelyn Barnes Trinity 7 6:27:00 13.0, 11.7 12.40 36, 45, 48 (Avg:46)
146 Ute Jordan Golden Thunder 7 6:27:00 12.1, 12.7 12.40 33, 41, 45 (Avg:43)
163 Janelle Taylor Calico Jarkamarn 7 6:27:00 12.1, 12.7 12.40 32, 41, 47 (Avg:44)
187 Victoria Clarke Hideaway Farm Pacific-Power 10 6:30:00 12.2, 12.3 12.31 32, 44, 47 (Avg:45)
129 Kaylea Maher Matta Mia Su Al 11 6:35:00 12.0, 12.2 12.15 37, 46, 52 (Avg:49)
109 Katie Brooks Jum-Jum Egyptian Queen 12 6:41:00 12.1, 11.8 11.97 38, 50, 49 (Avg:49)
197 Xanthe Webb Masquarade te 13 6:54:00 11.9, 11.1 11.59 44, 51, 55 (Avg:53)
114 Leigh Ann Sample Brookleigh Bailey 14 7:06:00 11.5, 10.9 11.27 34, 44, 49 (Avg:46)
119 Leah Begley Niarla Elia Shaklan 15 7:27:00 10.5, 10.9 10.74 42, 45, 45 (Avg:45)
165 Mel Jacobs El Sarem Glyde 16 7:41:00 10.9, 9.8 10.41 35, 42, 50 (Avg:46)
164 Sabrina Stephens Burralga Barbarian 16 7:41:00 10.9, 9.8 10.41 46, 48, 52 (Avg:50)
142 Sonya Ryan Kholonial Abigaal 18 7:47:00 10.9, 9.6 10.28 36, 44, 46 (Avg:45)
195 Brenda Davy Faris Zyrtec 19 7:51:00 10.6, 9.7 10.19 38, 50, 48 (Avg:49)
149 Jess Dakin Hirstglen Bronco 20 8:00:00 10.4, 9.5 10.00 40, 47, 51 (Avg:49)
171 Kate Appleby Willandra Desert Magic 21 8:03:00 10.9, 8.9 9.94 32, 50, 49 (Avg:49)
170 Jan Tyrrell Willandra Wind Lancer 21 8:03:00 11.0, 8.9 9.94 40, 55, 51 (Avg:53)
186 Sarah Huddleston Summer Park Harry 23 8:41:00 9.2, 9.2 9.21 44, 46, 49 (Avg:47)
155 Carly Moore Macrocarpa Red Bull Lame L2 0:00:00 10.9, 13.8 - 44, 48, 51 (Avg:49)
134 Sue Sutcliffe Ra-Anji Firefly Lame L2 0:00:00 11.5, 11.3 - 34, 45, 47 (Avg:46)
185 Amaya Thomas Samual Lame L2 0:00:00 9.2, 9.2 - 43, 46, 49 (Avg:47)
194 Bree Cook Longrun Conaar Lame L1 0:00:00 10.5 - 40, 48 (Avg:48)
126 Caroline Windle Sarina Rosetta Widthdrawn L1 0:00:00 - - 38, 46 (Avg:46)
Junior
182 Emma Dimech Indiana Seabreeze 1 5:43:00 14.9, 13.0 13.99 37, 46, 50 (Avg:48)
189 Jasmine Perrier Sahala Abu Simbel 2 (BC) 6:30:00 12.2, 12.3 12.31 30, 44, 45 (Avg:44)
118 Darcy Begley Shinto 3 7:27:00 10.5, 10.9 10.74 33, 39, 44 (Avg:41)
192 Christina Simpson Agape Evezra 4 7:51:00 10.6, 9.7 10.19 38, 44, 52 (Avg:48)
191 Mel Simpson Bashan Tahpenes 4 7:51:00 10.6, 9.7 10.19 38, 43, 47 (Avg:45)
181 Lili-Rose Kake Phoenix 6 7:59:00 10.8, 9.1 10.02 39, 55, 45 (Avg:50)
151 Nikita Ellison Hirstglen Mack 7 8:00:00 10.4, 9.5 10.00 34, 40, 47 (Avg:43)
180 Jess Kennedy Shannonwood Energex 8 8:04:00 10.4, 9.4 9.92 32, 42, 49 (Avg:45)
179 Hope Mansbridge Shannonwood Y-Shine 8 8:04:00 10.4, 9.4 9.92 39, 32, 55 (Avg:43)
178 Finn Mansbridge Shannonwood Ezar 8 8:04:00 10.5, 9.2 9.92 36, 42, 41 (Avg:41)
137 Tom Cleland Kirra 11 8:11:00 9.8, 9.7 9.78 35, 42, 41 (Avg:41)
139 Anita Maggacis Katushka 12 8:12:00 9.8, 9.6 9.76 35, 45, 47 (Avg:46)
103 Sayla Williams Shah-Vale Shamal 13 8:42:00 9.4, 8.9 9.20 32, 43, 42 (Avg:42)
138 Emily-Jade Begley Lasca's Lotus Lame L2 0:00:00 9.8, 9.6 - 34, 43, 50 (Avg:46)
112 Gemma Sutcliffe Kelkette Park Defy Lame L2 0:00:00 10.9, 10.1 - 34, 40, 44 (Avg:42)